Time;durP1;ratioP1;P1;durP2;ratioP2;P2;SDS_P1;SDS_P2;PMS_P1;PMS_P2;Temp;Humidity;BMP_temperature;BMP_pressure;BME280_temperature;BME280_humidity;BME280_pressure;Samples;Min_cycle;Max_cycle;Signal;HPM_P1;HPM_P2
2022/01/08 00:00:18;;;;;;;;;;;2.70;99.90;;;0.83;100.00;100604.06;2569838;30;136863;-40
2022/01/08 00:02:45;;;;;;;5.70;3.17;;;2.70;99.90;;;0.82;100.00;100592.47;2567942;30;137911;-40
2022/01/08 00:05:13;;;;;;;8.35;3.22;;;2.60;99.90;;;0.84;100.00;100587.78;2568044;30;137514;-40
2022/01/08 00:07:41;;;;;;;7.82;3.83;;;2.70;99.90;;;0.83;100.00;100587.97;2568814;30;137457;-40
2022/01/08 00:10:08;;;;;;;6.88;3.78;;;2.70;99.90;;;0.83;100.00;100587.97;2568861;30;137383;-40
2022/01/08 00:12:37;;;;;;;11.15;3.72;;;2.70;99.90;;;0.83;100.00;100594.16;2568452;30;138255;-40
2022/01/08 00:15:07;;;;;;;8.40;3.95;;;2.70;99.90;;;0.81;100.00;100601.53;2568386;30;138105;-40
2022/01/08 00:17:36;;;;;;;8.23;3.40;;;2.70;99.90;;;0.80;100.00;100599.00;2567052;30;139017;-40
2022/01/08 00:20:06;;;;;;;6.78;3.63;;;2.70;99.90;;;0.78;100.00;100598.28;2565454;30;137415;-39
2022/01/08 00:22:33;;;;;;;7.50;3.85;;;2.60;99.90;;;0.79;100.00;100597.28;2567636;30;138350;-40
2022/01/08 00:25:02;;;;;;;6.90;3.38;;;2.60;99.90;;;0.80;100.00;100609.75;2568542;30;137457;-40
2022/01/08 00:27:30;;;;;;;8.50;3.90;;;2.60;99.90;;;0.80;100.00;100605.22;2567542;30;138216;-39
2022/01/08 00:29:58;;;;;;;9.60;3.42;;;2.60;99.90;;;0.81;100.00;100608.75;2565971;30;138966;-40
2022/01/08 00:32:26;;;;;;;7.18;3.55;;;2.70;99.90;;;0.82;100.00;100605.06;2569205;30;139274;-40
2022/01/08 00:34:53;;;;;;;;;;;2.60;99.90;;;0.81;100.00;100606.91;2568554;30;137707;-40
2022/01/08 00:37:21;;;;;;;8.40;3.20;;;2.60;99.90;;;0.78;100.00;100617.09;2567743;30;138414;-37
2022/01/08 00:39:48;;;;;;;7.35;3.20;;;2.60;99.90;;;0.84;100.00;100617.34;2567682;30;137576;-37
2022/01/08 00:42:16;;;;;;;7.90;3.83;;;2.70;99.90;;;0.89;100.00;100614.19;2568316;30;137239;-37
2022/01/08 00:44:44;;;;;;;8.75;3.38;;;2.70;99.90;;;0.83;100.00;100615.66;2568478;30;137050;-37
2022/01/08 00:47:11;;;;;;;8.32;3.78;;;2.70;99.90;;;0.77;100.00;100620.78;2566687;30;137650;-38
2022/01/08 00:49:39;;;;;;;6.53;3.38;;;2.70;99.90;;;0.78;100.00;100622.47;2568597;30;136770;-37
2022/01/08 00:52:07;;;;;;;8.18;3.25;;;2.60;99.90;;;0.77;100.00;100618.09;2567073;30;138503;-37
2022/01/08 00:54:36;;;;;;;6.70;3.55;;;2.60;99.90;;;0.78;100.00;100622.47;2568666;30;136669;-37
2022/01/08 00:57:05;;;;;;;7.60;3.42;;;2.60;99.90;;;0.69;100.00;100624.25;2567632;30;137749;-37
2022/01/08 00:59:33;;;;;;;6.97;3.22;;;2.60;99.90;;;0.61;100.00;100629.53;2568288;30;136909;-37
2022/01/08 01:02:02;;;;;;;7.90;3.45;;;2.50;99.90;;;0.57;100.00;100626.31;2567310;30;139045;-37
2022/01/08 01:04:29;;;;;;;8.43;3.10;;;2.50;99.90;;;0.45;100.00;100627.50;2568008;30;137448;-37
2022/01/08 01:06:57;;;;;;;8.57;3.22;;;2.40;99.90;;;0.33;100.00;100624.19;2567218;30;138314;-37
2022/01/08 01:09:24;;;;;;;6.85;3.38;;;2.20;99.90;;;0.24;100.00;100623.25;2568383;30;137308;-38
2022/01/08 01:11:56;;;;;;;7.50;3.60;;;2.20;99.90;;;0.16;100.00;100626.69;2567514;30;137869;-37
2022/01/08 01:14:25;;;;;;;7.47;3.47;;;2.10;99.90;;;0.00;100.00;100613.94;2567941;30;137021;-37
2022/01/08 01:16:53;;;;;;;7.90;3.50;;;2.00;99.90;;;-0.08;100.00;100628.06;2564330;30;137881;-37
2022/01/08 01:19:21;;;;;;;7.10;2.63;;;1.90;99.90;;;-0.22;100.00;100621.34;2567102;30;138550;-38
2022/01/08 01:21:50;;;;;;;6.10;3.65;;;1.80;99.90;;;-0.33;100.00;100626.88;2564557;30;139460;-37
2022/01/08 01:24:21;;;;;;;8.40;3.28;;;1.70;99.90;;;-0.42;100.00;100627.75;2568298;30;137578;-37
2022/01/08 01:30:11;;;;;;;6.60;3.28;;;1.50;99.90;;;-0.59;100.00;100623.00;2567642;30;136883;-37
2022/01/08 06:39:42;;;;;;;15.03;7.37;;;0.40;99.90;;;-1.60;100.00;100819.47;2569730;30;138315;-40
2022/01/08 06:42:09;;;;;;;13.43;6.93;;;0.40;99.90;;;-1.54;100.00;100823.44;2569306;30;137414;-40
2022/01/08 06:44:37;;;;;;;20.60;8.85;;;0.40;99.90;;;-1.46;100.00;100823.63;2568972;30;137495;-40
2022/01/08 06:47:05;;;;;;;;;;;0.40;99.90;;;-1.41;100.00;100819.72;2569600;30;137527;-40
2022/01/08 06:49:33;;;;;;;16.42;7.82;;;0.50;99.90;;;-1.38;100.00;100825.63;2570512;30;137312;-39
2022/01/08 06:52:00;;;;;;;15.75;8.25;;;0.60;99.90;;;-1.39;100.00;100829.28;2568492;30;138322;-40
2022/01/08 06:54:28;;;;;;;15.75;8.05;;;0.60;99.90;;;-1.39;100.00;100826.59;2568489;30;139117;-40
2022/01/08 06:56:55;;;;;;;17.48;9.05;;;0.60;99.90;;;-1.33;100.00;100828.75;2569039;30;137153;-40
2022/01/08 06:59:23;;;;;;;16.33;8.55;;;0.60;99.90;;;-1.29;100.00;100832.00;2569431;30;138483;-40
2022/01/08 07:01:50;;;;;;;19.42;8.57;;;0.60;99.90;;;-1.27;100.00;100821.19;2568223;30;138554;-40
2022/01/08 07:04:18;;;;;;;20.75;10.18;;;0.70;99.90;;;-1.28;100.00;100827.50;2570082;30;138252;-40
2022/01/08 07:06:45;;;;;;;20.00;9.73;;;0.60;99.90;;;-1.28;100.00;100827.50;2568384;30;138709;-40
2022/01/08 07:09:13;;;;;;;17.98;9.50;;;0.60;99.90;;;-1.22;100.00;100826.97;2569399;30;138470;-39
2022/01/08 07:11:40;;;;;;;21.63;9.70;;;0.70;99.90;;;-1.27;100.00;100826.53;2569657;30;136692;-40
2022/01/08 07:14:08;;;;;;;23.02;10.07;;;0.70;99.90;;;-1.26;100.00;100836.25;2568820;30;138970;-40
2022/01/08 07:16:35;;;;;;;20.10;9.88;;;0.70;99.90;;;-1.29;100.00;100826.66;2570948;30;137629;-40
2022/01/08 07:19:03;;;;;;;23.85;10.18;;;0.70;99.90;;;-1.37;100.00;100827.31;2568172;30;138995;-40
2022/01/08 07:21:31;;;;;;;23.88;10.35;;;0.60;99.90;;;-1.40;100.00;100830.25;2568648;30;136859;-40
2022/01/08 07:23:58;;;;;;;20.42;10.45;;;0.60;99.90;;;-1.50;100.00;100829.38;2567024;30;138388;-40
2022/01/08 07:26:26;;;;;;;24.20;10.98;;;0.50;99.90;;;-1.48;100.00;100832.78;2569591;30;138408;-40
2022/01/08 07:28:53;;;;;;;21.80;11.70;;;0.50;99.90;;;-1.50;100.00;100824.03;2567384;30;137364;-40
2022/01/08 07:31:22;;;;;;;24.30;11.43;;;0.50;99.90;;;-1.55;100.00;100831.63;2569048;30;136771;-40
2022/01/08 07:33:50;;;;;;;22.08;10.30;;;0.40;99.90;;;-1.62;100.00;100829.44;2567533;30;137869;-40
2022/01/08 07:36:17;;;;;;;;;;;0.40;99.90;;;-1.71;100.00;100821.41;2567649;30;136871;-41
2022/01/08 07:38:47;;;;;;;21.63;9.82;;;0.30;99.90;;;-1.71;100.00;100827.56;2567755;30;137463;-40
2022/01/08 07:41:15;;;;;;;19.80;8.98;;;0.30;99.90;;;-1.77;100.00;100828.13;2569249;30;137542;-40
2022/01/08 07:43:42;;;;;;;20.80;9.52;;;0.20;99.90;;;-1.75;100.00;100837.69;2566155;30;138380;-40
2022/01/08 07:46:10;;;;;;;20.58;9.90;;;0.20;99.90;;;-1.73;100.00;100840.25;2567800;30;137651;-40
2022/01/08 07:48:38;;;;;;;20.60;10.23;;;0.20;99.90;;;-1.69;100.00;100851.53;2568205;30;139003;-40
2022/01/08 07:51:05;;;;;;;20.55;9.85;;;0.30;99.90;;;-1.75;100.00;100844.88;2568695;30;138539;-40
2022/01/08 07:53:33;;;;;;;19.98;10.20;;;0.20;99.90;;;-1.73;100.00;100851.78;2567255;30;137277;-40
2022/01/08 07:56:00;;;;;;;16.30;8.82;;;0.20;99.90;;;-1.72;100.00;100849.97;2568022;30;136865;-40
2022/01/08 07:58:28;;;;;;;18.05;9.55;;;0.20;99.90;;;-1.68;100.00;100858.59;2565396;30;137747;-40
2022/01/08 08:00:57;;;;;;;20.90;9.50;;;0.20;99.90;;;-1.61;100.00;100849.88;2568645;30;137362;-40
2022/01/08 08:03:25;;;;;;;16.83;9.07;;;0.30;99.90;;;-1.51;100.00;100849.94;2568154;30;137010;-40
2022/01/08 08:05:52;;;;;;;21.13;9.20;;;0.40;99.90;;;-1.46;100.00;100846.88;2567724;30;137836;-40
2022/01/08 08:08:21;;;;;;;17.63;8.70;;;0.40;99.90;;;-1.47;100.00;100848.69;2567653;30;139047;-39
2022/01/08 08:10:50;;;;;;;20.00;8.65;;;0.50;99.90;;;-1.38;100.00;100846.19;2567582;30;137003;-40
2022/01/08 08:13:21;;;;;;;16.65;8.63;;;0.50;99.90;;;-1.28;100.00;100846.25;2567815;30;137473;-40
2022/01/08 08:15:49;;;;;;;17.33;8.75;;;0.60;99.90;;;-1.21;100.00;100842.88;2568360;30;136982;-40
2022/01/08 08:18:17;;;;;;;20.20;10.15;;;0.60;99.90;;;-1.16;100.00;100842.47;2566081;30;139408;-40
2022/01/08 08:20:44;;;;;;;22.00;9.27;;;0.70;99.90;;;-1.17;100.00;100835.44;2568258;30;137646;-40
2022/01/08 08:23:12;;;;;;;19.58;9.00;;;0.70;99.90;;;-1.13;100.00;100844.06;2568100;30;139166;-40
2022/01/08 08:25:39;;;;;;;19.70;9.30;;;0.70;99.90;;;-1.16;100.00;100831.78;2568489;30;137359;-40
2022/01/08 08:28:07;;;;;;;19.85;10.13;;;0.70;99.90;;;-1.10;100.00;100833.06;2567543;30;137519;-40
2022/01/08 08:30:35;;;;;;;22.15;9.70;;;0.80;99.90;;;-1.07;100.00;100828.25;2567651;30;136979;-40
2022/01/08 08:33:04;;;;;;;21.95;9.80;;;0.80;99.90;;;-1.02;100.00;100826.06;2568047;30;138481;-40
2022/01/08 08:35:33;;;;;;;22.17;10.23;;;0.80;99.90;;;-1.04;100.00;100825.34;2567917;30;137430;-40
2022/01/08 08:38:00;;;;;;;24.55;10.70;;;0.80;99.90;;;-0.99;100.00;100832.94;2567948;30;138296;-40
2022/01/08 08:40:28;;;;;;;21.88;10.38;;;0.80;99.90;;;-0.94;100.00;100822.66;2567983;30;137011;-40
2022/01/08 08:42:56;;;;;;;22.52;9.98;;;0.90;99.90;;;-0.88;100.00;100824.81;2565707;30;137749;-40
2022/01/08 08:45:23;;;;;;;22.40;9.98;;;0.90;99.90;;;-0.77;100.00;100821.19;2566662;30;137143;-40
2022/01/08 08:47:51;;;;;;;23.77;10.00;;;1.00;99.90;;;-0.64;100.00;100830.78;2567210;30;138440;-40
2022/01/08 08:50:19;;;;;;;25.98;10.45;;;1.10;99.90;;;-0.53;100.00;100821.75;2568010;30;137549;-40
2022/01/08 08:52:47;;;;;;;26.45;10.52;;;1.20;99.90;;;-0.45;100.00;100829.94;2568311;30;137297;-40
2022/01/08 08:55:16;;;;;;;23.60;10.43;;;1.30;99.90;;;-0.37;100.00;100832.78;2567461;30;137521;-40
2022/01/08 08:57:47;;;;;;;25.70;9.85;;;1.40;99.90;;;-0.34;100.00;100826.28;2568597;30;139257;-40
2022/01/08 09:00:15;;;;;;;23.88;10.55;;;1.40;99.90;;;-0.27;100.00;100822.03;2568550;30;136981;-40
2022/01/08 09:02:43;;;;;;;26.52;10.68;;;1.50;99.90;;;-0.25;100.00;100820.09;2568250;30;139389;-40
2022/01/08 09:05:11;;;;;;;;;;;1.50;99.90;;;-0.24;100.00;100827.13;2569068;30;137490;-40
2022/01/08 09:07:39;;;;;;;24.75;10.30;;;1.60;99.90;;;-0.21;100.00;100821.50;2568212;30;137925;-40
2022/01/08 09:10:11;;;;;;;27.52;10.15;;;1.60;99.90;;;-0.19;100.00;100813.28;2568719;30;138536;-40
2022/01/08 09:12:41;;;;;;;24.65;10.18;;;1.60;99.90;;;-0.12;100.00;100811.75;2567552;30;138215;-40
2022/01/08 09:15:10;;;;;;;25.23;11.07;;;1.70;99.90;;;-0.10;100.00;100815.13;2568341;30;137585;-40
2022/01/08 09:17:40;;;;;;;23.60;10.25;;;1.70;99.90;;;-0.05;100.00;100807.50;2568361;30;138376;-40
2022/01/08 09:20:09;;;;;;;23.60;10.63;;;1.70;99.90;;;0.11;100.00;100823.00;2567786;30;136799;-40
2022/01/08 09:22:38;;;;;;;26.83;10.65;;;1.90;99.90;;;0.17;100.00;100818.03;2567061;30;139478;-40
2022/01/08 09:25:06;;;;;;;26.00;10.65;;;1.90;99.90;;;0.18;100.00;100819.75;2568071;30;137538;-40
2022/01/08 09:27:34;;;;;;;27.10;10.90;;;1.90;99.90;;;0.24;100.00;100816.47;2567506;30;138289;-40
2022/01/08 09:30:02;;;;;;;;;;;2.00;99.90;;;0.26;100.00;100817.16;2567536;30;137592;-40
2022/01/08 09:32:31;;;;;;;27.33;10.45;;;2.00;99.90;;;0.30;100.00;100813.22;2567609;30;139430;-40
2022/01/08 09:34:58;;;;;;;29.48;10.73;;;2.10;99.90;;;0.37;100.00;100808.97;2565332;30;138155;-40
2022/01/08 09:37:26;;;;;;;26.80;11.40;;;2.10;99.90;;;0.41;100.00;100806.84;2567480;30;138479;-39
2022/01/08 09:39:54;;;;;;;28.20;11.75;;;2.10;99.90;;;0.47;100.00;100803.56;2564948;30;138472;-40
2022/01/08 09:42:21;;;;;;;25.27;11.07;;;2.20;99.90;;;0.52;100.00;100806.66;2568286;30;139259;-40
2022/01/08 09:44:49;;;;;;;23.17;10.05;;;2.30;99.90;;;0.60;100.00;100808.59;2566788;30;137635;-40
2022/01/08 09:47:17;;;;;;;22.02;10.98;;;2.30;99.90;;;0.67;100.00;100801.63;2568118;30;138182;-40
2022/01/08 09:49:45;;;;;;;25.33;10.55;;;2.40;99.90;;;0.73;100.00;100807.41;2567717;30;138462;-39
2022/01/08 09:52:12;;;;;;;25.20;11.13;;;2.40;99.90;;;0.82;100.00;100806.53;2566221;30;138200;-39
2022/01/08 09:54:40;;;;;;;26.15;11.38;;;2.50;99.90;;;0.91;100.00;100805.63;2567030;30;138320;-40
2022/01/08 09:57:08;;;;;;;26.13;11.20;;;2.60;99.90;;;0.99;100.00;100800.34;2567795;30;139140;-39
2022/01/08 09:59:36;;;;;;;24.25;11.25;;;2.70;99.90;;;1.01;100.00;100792.16;2566792;30;136745;-40
2022/01/08 10:02:04;;;;;;;;;;;2.70;99.90;;;1.09;100.00;100789.53;2565960;30;138902;-39
2022/01/08 10:04:35;;;;;;;27.15;11.25;;;2.80;99.90;;;1.14;100.00;100789.94;2568048;30;137469;-40
2022/01/08 10:07:23;;;;;;;25.83;10.45;;;2.90;99.90;;;1.20;100.00;100777.72;2565629;30;138265;-39
2022/01/08 10:10:17;;;;;;;24.33;10.43;;;3.00;99.90;;;1.28;100.00;100780.50;2568318;30;137757;-40
2022/01/08 10:12:56;;;;;;;23.23;10.18;;;3.00;99.90;;;1.32;100.00;100769.44;2566980;30;138225;-39
2022/01/08 10:18:33;;;;;;;25.42;10.45;;;3.10;99.90;;;1.35;100.00;100756.53;2568160;30;138411;-40
2022/01/08 10:21:37;;;;;;;22.05;9.95;;;3.10;99.90;;;1.43;100.00;100756.59;2565317;30;138654;-40
2022/01/08 10:24:08;;;;;;;22.95;10.60;;;3.10;99.90;;;1.46;100.00;100751.91;2568218;30;139387;-40
2022/01/08 10:26:41;;;;;;;27.02;9.90;;;3.20;99.90;;;1.54;100.00;100738.56;2567728;30;137556;-39
2022/01/08 10:29:15;;;;;;;24.85;9.68;;;3.20;99.90;;;1.56;100.00;100745.47;2566395;30;137459;-40
2022/01/08 10:31:50;;;;;;;23.50;9.57;;;3.30;99.90;;;1.62;100.00;100735.94;2567621;30;138281;-40
2022/01/08 10:34:24;;;;;;;25.50;10.38;;;3.40;99.90;;;1.65;100.00;100732.94;2568454;30;139203;-40
2022/01/08 10:36:55;;;;;;;23.52;8.77;;;3.40;99.90;;;1.69;100.00;100730.78;2567207;30;136844;-39
2022/01/08 10:39:42;;;;;;;25.73;9.77;;;3.40;99.90;;;1.75;100.00;100724.75;2565668;30;138291;-40
2022/01/08 10:42:17;;;;;;;19.13;8.68;;;3.50;99.90;;;1.75;100.00;100715.88;2567378;30;136892;-40
2022/01/08 10:44:47;;;;;;;25.05;9.07;;;3.50;99.90;;;1.84;100.00;100712.22;2567443;30;137890;-39
2022/01/08 10:47:20;;;;;;;20.08;9.43;;;3.50;99.90;;;1.86;100.00;100704.84;2568885;30;137798;-40
2022/01/08 10:50:06;;;;;;;20.13;9.38;;;3.60;99.90;;;1.94;100.00;100694.09;2567129;30;138187;-40
2022/01/08 10:52:47;;;;;;;23.33;10.43;;;3.60;99.90;;;1.99;100.00;100682.88;2566712;30;138092;-40
2022/01/08 10:55:29;;;;;;;22.60;9.77;;;3.70;99.90;;;2.06;100.00;100673.16;2567999;30;138333;-40
2022/01/08 10:57:57;;;;;;;25.13;8.93;;;3.70;99.90;;;2.09;100.00;100667.44;2568820;30;136741;-39
2022/01/08 11:00:32;;;;;;;21.70;8.60;;;3.80;99.90;;;2.08;100.00;100646.09;2568771;30;136872;-40
2022/01/08 11:03:00;;;;;;;17.80;7.20;;;3.80;99.90;;;2.24;100.00;100648.00;2566790;30;136877;-40
2022/01/08 11:05:28;;;;;;;18.77;7.50;;;3.90;99.90;;;2.27;100.00;100645.84;2569004;30;137956;-40
2022/01/08 11:08:17;;;;;;;12.95;6.47;;;4.00;99.90;;;2.39;100.00;100640.16;2565630;30;137211;-39
2022/01/08 11:10:45;;;;;;;14.05;6.78;;;4.00;99.90;;;2.43;100.00;100633.44;2567438;30;138329;-40
2022/01/08 11:13:15;;;;;;;15.10;7.03;;;4.10;99.90;;;2.53;100.00;100628.75;2568214;30;137493;-40
2022/01/08 11:15:51;;;;;;;15.82;6.90;;;4.20;99.90;;;2.55;100.00;100613.28;2568789;30;138440;-40
2022/01/08 11:18:19;;;;;;;12.55;6.63;;;4.20;99.90;;;2.62;100.00;100613.44;2567882;30;138208;-40
2022/01/08 11:20:55;;;;;;;14.55;6.43;;;4.30;99.90;;;2.61;100.00;100611.75;2568913;30;138300;-40
2022/01/08 11:23:28;;;;;;;14.05;6.10;;;4.30;99.90;;;2.65;100.00;100605.06;2568972;30;136906;-40
2022/01/08 11:25:58;;;;;;;14.70;6.07;;;4.30;99.90;;;2.68;100.00;100596.63;2567803;30;138177;-40
2022/01/08 11:28:37;;;;;;;13.77;5.75;;;4.40;99.90;;;2.66;100.00;100593.28;2568154;30;137021;-40
2022/01/08 11:31:08;;;;;;;;;;;4.40;99.90;;;2.66;100.00;100573.56;2568571;30;138292;-40
2022/01/08 11:33:37;;;;;;;12.27;5.45;;;4.30;99.90;;;2.68;100.00;100569.69;2567636;30;137341;-40
2022/01/08 11:36:06;;;;;;;11.55;5.32;;;4.40;99.90;;;2.75;100.00;100563.63;2565806;30;138123;-40
2022/01/08 11:38:34;;;;;;;13.98;5.95;;;4.40;99.90;;;2.76;100.00;100558.06;2568973;30;137510;-40
2022/01/08 11:41:01;;;;;;;;;;;4.40;99.90;;;2.81;100.00;100562.97;2568748;30;138359;-40
2022/01/08 11:43:31;;;;;;;12.88;4.72;;;4.50;99.90;;;2.79;100.00;100556.91;2568146;30;136729;-40
2022/01/08 11:46:07;;;;;;;11.95;4.70;;;4.50;99.90;;;2.87;100.00;100549.66;2569010;30;138532;-40
2022/01/08 11:48:49;;;;;;;11.05;5.45;;;4.50;99.90;;;2.89;100.00;100541.38;2567481;30;137508;-40
2022/01/08 11:51:20;;;;;;;11.05;4.75;;;4.60;99.90;;;2.90;100.00;100537.69;2568371;30;137926;-40
2022/01/08 11:53:51;;;;;;;13.35;4.90;;;4.50;99.90;;;2.92;100.00;100540.22;2568043;30;137401;-40
2022/01/08 11:56:38;;;;;;;11.00;4.93;;;4.60;99.90;;;2.94;100.00;100527.41;2568727;30;137383;-40
2022/01/08 11:59:18;;;;;;;11.23;4.88;;;4.60;99.90;;;2.96;100.00;100528.94;2565722;30;137295;-40
2022/01/08 12:02:08;;;;;;;11.80;4.97;;;4.60;99.90;;;2.94;100.00;100527.41;2567169;30;138748;-40
2022/01/08 12:04:37;;;;;;;10.00;4.47;;;4.60;99.90;;;2.94;99.81;100525.56;2568247;30;138494;-40
2022/01/08 12:07:34;;;;;;;12.32;4.10;;;4.60;99.90;;;2.97;99.12;100521.69;2567592;30;136863;-40
2022/01/08 12:10:20;;;;;;;9.75;4.13;;;4.60;99.90;;;3.00;98.14;100505.16;2567907;30;136924;-40
2022/01/08 12:12:59;;;;;;;9.40;4.25;;;4.60;99.90;;;2.99;98.38;100490.88;2568762;30;138103;-40
2022/01/08 12:15:42;;;;;;;10.30;3.95;;;4.70;99.90;;;2.99;96.79;100495.41;2567884;30;137336;-40
2022/01/08 12:18:16;;;;;;;8.95;3.85;;;4.70;99.90;;;3.08;98.00;100485.44;2567978;30;139109;-40
2022/01/08 12:20:52;;;;;;;6.65;3.42;;;4.70;99.90;;;3.11;97.16;100469.78;2567748;30;137795;-40
2022/01/08 12:23:39;;;;;;;8.70;3.47;;;4.80;99.90;;;3.16;96.06;100455.75;2566782;30;137433;-40
2022/01/08 12:26:28;;;;;;;9.98;3.13;;;4.80;99.90;;;3.20;97.05;100461.66;2568543;30;136997;-40
2022/01/08 12:28:58;;;;;;;7.05;3.60;;;4.90;99.90;;;3.24;97.17;100455.75;2569431;30;137403;-40
2022/01/08 12:31:45;;;;;;;8.18;3.28;;;4.90;99.90;;;3.30;95.64;100457.75;2568275;30;138178;-40
2022/01/08 12:34:30;;;;;;;7.75;3.40;;;4.90;99.90;;;3.35;93.69;100442.91;2567365;30;138984;-40
2022/01/08 12:37:12;;;;;;;8.55;2.55;;;5.00;99.90;;;3.38;93.80;100434.47;2569121;30;138403;-40
2022/01/08 12:39:43;;;;;;;7.30;3.15;;;5.00;99.90;;;3.47;93.60;100429.88;2571810;30;138314;-37
2022/01/08 12:42:19;;;;;;;10.93;2.60;;;5.10;99.90;;;3.53;93.52;100421.94;2567037;30;137529;-37
2022/01/08 12:45:29;;;;;;;7.22;2.65;;;5.10;99.90;;;3.54;91.84;100414.66;2568931;30;138201;-37
2022/01/08 12:48:10;;;;;;;5.77;2.40;;;5.20;99.90;;;3.55;90.41;100395.63;2567733;30;137484;-37
2022/01/08 12:50:52;;;;;;;6.30;2.53;;;5.20;99.90;;;3.49;91.15;100382.84;2567656;30;138912;-36
2022/01/08 12:53:28;;;;;;;7.70;3.33;;;5.20;99.90;;;3.52;90.62;100379.78;2568277;30;137382;-37
2022/01/08 12:55:56;;;;;;;6.85;2.28;;;5.20;99.90;;;3.52;90.96;100371.69;2566472;30;138560;-37
2022/01/08 12:58:44;;;;;;;8.05;2.38;;;5.20;99.90;;;3.53;89.34;100361.72;2568448;30;137452;-37
2022/01/08 13:01:24;;;;;;;7.07;2.33;;;5.20;99.90;;;3.52;90.82;100347.44;2568192;30;137868;-37
2022/01/08 13:03:56;;;;;;;5.90;2.80;;;5.20;99.90;;;3.51;90.20;100353.84;2568341;30;137730;-37
2022/01/08 13:06:29;;;;;;;6.72;2.35;;;5.20;99.90;;;3.45;90.16;100336.50;2567073;30;137379;-37
2022/01/08 13:08:59;;;;;;;7.60;2.20;;;5.20;99.90;;;3.43;89.65;100343.94;2567732;30;138229;-37
2022/01/08 13:11:32;;;;;;;7.78;2.55;;;5.20;99.90;;;3.37;89.38;100335.69;2567164;30;138662;-37
2022/01/08 13:14:06;;;;;;;5.40;2.08;;;5.10;99.90;;;3.25;89.74;100317.25;2568757;30;137343;-37
2022/01/08 13:16:41;;;;;;;6.07;2.47;;;5.00;99.90;;;3.26;89.76;100312.66;2568541;30;138083;-37
2022/01/08 13:19:15;;;;;;;4.55;1.92;;;5.00;99.90;;;3.23;89.92;100321.13;2565793;30;137734;-37
2022/01/08 13:21:59;;;;;;;7.70;2.38;;;5.00;99.90;;;3.21;90.44;100312.38;2568650;30;138190;-37
2022/01/08 13:24:46;;;;;;;5.95;2.40;;;4.90;99.90;;;3.15;90.81;100309.38;2567799;30;137429;-37
2022/01/08 13:27:22;;;;;;;5.78;2.20;;;4.90;99.90;;;3.15;90.62;100305.81;2566608;30;137379;-37
2022/01/08 13:29:54;;;;;;;5.18;2.10;;;4.90;99.90;;;3.04;90.44;100306.22;2567404;30;136856;-37
2022/01/08 13:32:24;;;;;;;7.80;2.45;;;4.90;99.90;;;2.99;90.99;100296.81;2568910;30;137691;-37
2022/01/08 13:34:59;;;;;;;6.65;2.42;;;4.80;99.90;;;2.91;90.14;100288.75;2568862;30;137458;-37
2022/01/08 13:37:32;;;;;;;5.38;2.58;;;4.70;99.90;;;2.83;90.68;100268.09;2567773;30;137310;-37
2022/01/08 13:40:05;;;;;;;7.25;2.60;;;4.70;99.90;;;2.87;91.96;100269.41;2565681;30;137917;-37
2022/01/08 13:42:39;;;;;;;7.15;2.55;;;4.60;99.90;;;2.78;92.72;100264.22;2567328;30;138096;-37
2022/01/08 13:45:06;;;;;;;5.72;2.58;;;4.60;99.90;;;2.76;92.46;100253.59;2567935;30;137713;-37
2022/01/08 13:47:50;;;;;;;7.82;2.70;;;4.50;99.90;;;2.79;93.98;100239.81;2567669;30;138979;-37
2022/01/08 13:50:39;;;;;;;5.50;2.47;;;4.50;99.90;;;2.71;94.59;100238.00;2568391;30;137475;-37
2022/01/08 13:53:10;;;;;;;7.00;2.30;;;4.50;99.90;;;2.64;95.12;100225.38;2567948;30;138582;-37
2022/01/08 13:55:50;;;;;;;6.43;2.65;;;4.40;99.90;;;2.64;95.97;100210.06;2568137;30;137392;-37
2022/01/08 13:58:27;;;;;;;4.40;2.15;;;4.40;99.90;;;2.66;96.47;100199.97;2568288;30;139201;-37
2022/01/08 14:01:07;;;;;;;7.40;2.70;;;4.40;99.90;;;2.65;95.07;100179.44;2567197;30;138409;-37
2022/01/08 14:03:49;;;;;;;5.07;2.60;;;4.40;99.90;;;2.63;95.22;100180.63;2568434;30;139048;-37
2022/01/08 14:06:26;;;;;;;4.93;2.70;;;4.40;99.90;;;2.61;95.07;100172.69;2566494;30;136765;-37
2022/01/08 14:09:00;;;;;;;7.30;2.45;;;4.40;99.90;;;2.59;95.29;100166.66;2566411;30;138223;-37
2022/01/08 14:11:30;;;;;;;4.82;2.25;;;4.40;99.90;;;2.62;95.12;100168.16;2566761;30;137518;-37
2022/01/08 14:13:59;;;;;;;5.22;2.22;;;4.40;99.90;;;2.61;95.43;100145.75;2567433;30;136878;-38
2022/01/08 14:16:41;;;;;;;6.18;2.42;;;4.40;99.90;;;2.53;96.79;100135.03;2566611;30;137617;-37
2022/01/08 14:19:21;;;;;;;5.95;2.30;;;4.30;99.90;;;2.46;97.27;100136.78;2568876;30;138517;-37
2022/01/08 14:21:55;;;;;;;5.25;1.88;;;4.30;99.90;;;2.42;98.38;100141.66;2566756;30;136826;-37
2022/01/08 14:24:26;;;;;;;6.05;1.90;;;4.20;99.90;;;2.35;99.59;100146.91;2566451;30;138241;-37
2022/01/08 14:27:08;;;;;;;5.47;1.80;;;4.20;99.90;;;2.35;99.66;100135.31;2568071;30;136809;-37
2022/01/08 14:29:41;;;;;;;5.80;1.85;;;4.10;99.90;;;2.31;100.00;100118.66;2567562;30;138195;-37
2022/01/08 14:32:13;;;;;;;3.42;1.95;;;4.10;99.90;;;2.24;100.00;100110.44;2568090;30;137015;-37
2022/01/08 14:34:49;;;;;;;5.20;1.95;;;4.00;99.90;;;2.23;100.00;100102.56;2569074;30;138180;-37
2022/01/08 14:37:33;;;;;;;6.28;2.30;;;4.00;99.90;;;2.13;100.00;100097.38;2565765;30;137300;-37
2022/01/08 14:40:21;;;;;;;6.32;2.30;;;4.00;99.90;;;2.06;100.00;100086.47;2568494;30;137332;-37
2022/01/08 14:43:07;;;;;;;5.20;2.30;;;3.90;99.90;;;2.06;100.00;100083.78;2565562;30;137441;-37
2022/01/08 14:45:46;;;;;;;6.22;2.35;;;3.80;99.90;;;1.99;100.00;100069.34;2566726;30;138809;-37
2022/01/08 14:48:23;;;;;;;4.38;2.00;;;3.80;99.90;;;1.91;100.00;100058.63;2568979;30;137645;-37
2022/01/08 14:50:52;;;;;;;5.10;2.22;;;3.70;99.90;;;1.82;100.00;100055.94;2568370;30;137240;-37
2022/01/08 14:53:20;;;;;;;4.18;1.50;;;3.70;99.90;;;1.74;100.00;100044.41;2568369;30;137540;-37
2022/01/08 14:55:49;;;;;;;3.72;1.60;;;3.60;99.90;;;1.69;100.00;100045.75;2568881;30;137461;-37
2022/01/08 14:58:17;;;;;;;5.28;1.95;;;3.60;99.90;;;1.62;100.00;100028.63;2569642;30;137249;-37
2022/01/08 15:00:44;;;;;;;5.57;2.10;;;3.50;99.90;;;1.67;100.00;100022.75;2567053;30;137134;-37
2022/01/08 15:03:12;;;;;;;5.00;1.80;;;3.50;99.90;;;1.52;100.00;100023.44;2568895;30;137034;-37
2022/01/08 15:05:40;;;;;;;4.28;2.00;;;3.40;99.90;;;1.49;100.00;100012.22;2566378;30;137247;-37
2022/01/08 15:08:08;;;;;;;4.45;1.77;;;3.40;99.90;;;1.44;100.00;100001.97;2568512;30;138146;-37
2022/01/08 15:10:35;;;;;;;4.70;2.55;;;3.30;99.90;;;1.41;100.00;99986.19;2567827;30;138977;-37
2022/01/08 15:13:03;;;;;;;4.65;1.98;;;3.30;99.90;;;1.38;100.00;99970.41;2567568;30;137349;-37
2022/01/08 15:15:30;;;;;;;5.50;2.45;;;3.30;99.90;;;1.34;100.00;99966.41;2567617;30;137446;-37
2022/01/08 15:17:58;;;;;;;7.65;2.00;;;3.20;99.90;;;1.35;100.00;99962.69;2567648;30;137671;-37
2022/01/08 15:20:31;;;;;;;7.00;2.10;;;3.20;99.90;;;1.38;100.00;99940.84;2567611;30;138137;-37
2022/01/08 15:23:02;;;;;;;4.97;2.58;;;3.20;99.90;;;1.34;100.00;99936.84;2568587;30;137165;-37
2022/01/08 15:25:31;;;;;;;5.65;2.05;;;3.20;99.90;;;1.30;100.00;99930.97;2566536;30;137107;-37
2022/01/08 15:28:00;;;;;;;5.10;1.90;;;3.20;99.90;;;1.26;100.00;99925.09;2565911;30;138803;-37
2022/01/08 15:30:29;;;;;;;4.65;2.53;;;3.10;99.90;;;1.21;100.00;99918.56;2567330;30;137947;-37
2022/01/08 15:32:58;;;;;;;5.88;2.60;;;3.10;99.90;;;1.20;100.00;99901.59;2568497;30;137491;-37
2022/01/08 15:35:26;;;;;;;5.82;2.20;;;3.10;99.90;;;1.17;100.00;99896.56;2568783;30;138378;-37
2022/01/08 15:37:54;;;;;;;5.13;2.15;;;3.00;99.90;;;1.18;100.00;99895.56;2568108;30;137361;-37
2022/01/08 15:40:21;;;;;;;8.18;2.72;;;3.00;99.90;;;1.20;100.00;99881.97;2568597;30;138361;-37
2022/01/08 15:42:49;;;;;;;5.25;2.60;;;3.00;99.90;;;1.20;100.00;99879.28;2568715;30;136713;-37